Festival des Hospitaliers - 29/10/2016

Trail Larzac Dourbie - 29,5 Km (+1482m)

559 participants classés


Retour au Sommaire - Signaler une erreur - Faire défiler





1 2 3 4 5 6 7 8 9 10 11 12 /fin /tout

page suivante ->

Pl Do. Nom - Surname Prénom - Name S-Cat /cat Club - Team TEMPS - Time Km/h /sx
1 1334 LAUMOND Eric MV1 1 BAC 02:41:49 10,8 1
2 1011 LENORMAND Guillaume MV1 2 Team SCOTT BV Sport 02:46:39 10,4 2
3 1420 LAULHE Jean-Luc MSE 1 AMICALE HERAULT 02:46:57 10,4 3
4 1254 SEVESTRE Cyrille MSE 2 UA VILLENOY 02:49:05 10,3 4
5 1003 SOMPROU Mathieu MSE 3 ESCLOPS D'AZUN 02:50:32 10,2 5
6 1588 CHOULET Frédéric MSE 4 TEAM PBL 02:50:49 10,2 6
7 1451 MATÉ Chris MSE 5 PBA TRAIL 02:52:09 10,1 7
8 1273 HERVAS Mathias MES 1   02:54:12 10,0 8
9 1300 AIO Guillaume MSE 6 team lacorde 02:54:34 10,0 9
10 1403 PLANTIER Ludovic MV1 3 ASSP BORDEAUX 02:55:15 9,9 10
11 1525 LAMENDOUR Serge MV1 4 TEAM HUMBLEZH 02:59:21 9,7 11
12 1147 BLONDEL Matthieu MSE 7   03:02:55 9,5 12
13 1386 GAUTHIER Pierre MV1 5   03:03:13 9,5 13
14 1082 DUPUY Jean-Guillaume MSE 8 TEAM ENDURANCE SHOP LAROCHE/YON 03:03:14 9,5 14
15 1202 TEFFO Nicolas MV1 6 ENDURANCE SHOP RODEZ/SRA 03:03:41 9,5 15
16 1145 BATTAGLIA Franck MV1 7 CLERMONT TRI 03:04:21 9,4 16
17 1233 LEON Stevan MES 2 BREST LATITUDE TRAIL 03:04:45 9,4 17
18 1033 PAPI Luca MSE 9 TEAM WAA 03:05:51 9,4 18
19 1121 COLMARD Jean-Louis MV2 1 ENDURANCE SHOP 03:05:54 9,4 19
20 1494 ALCAZAR Emmanuel MSE 10 TEAM IBEX/FARTLECK 03:09:05 9,2 20
21 1024 GROUSSET Christophe MV1 8   03:11:32 9,1 21
22 1117 COSTE Olivier MSE 11 COSTE PEINTURES 03:12:03 9,1 22
23 1126 WAGENHEIM Laurent MSE 12 CASTRIES RUNNING CLUB 03:12:45 9,0 23
24 1453 ARNAL-BREZUN Didier MV2 2   03:13:30 9,0 24
25 1404 TAPIA Sébastien MV1 9   03:14:15 9,0 25
26 1123 TROUCHE Pierre MSE 13   03:15:59 8,9 26
27 1325 ANTOINE Jérôme MV1 10   03:16:31 8,9 27
28 1406 PRONO Gislain M 1 COURIR A PLUNERET 03:18:38 8,8 28
29 1213 MATERINSKY Rémi MV2 3 ACFA 03:19:32 8,7 29
30 1511 AMESTOY Frédéric MSE 14 AS ASCAIN ELGARREKIN 03:22:01 8,6 30
31 1306 VAYSSET David MV1 11   03:22:47 8,6 31
32 1109 LECOUFLE Séverine FV1 1 ATHLE PAYS DE FOUGERES 03:23:05 8,6 1
33 1513 GORIAUX Guillaume MSE 15   03:23:22 8,6 32
34 1313 ALLANIC Jean MV1 12 COURIR A PLUNERET 03:24:25 8,5 33
35 1353 VEZINET Béatrice FSE 1   03:24:28 8,5 2
36 1534 BAPT Laurent MV1 13 TEAM PBL 03:24:53 8,5 34
37 1180 KERBAOL Françoise FV1 2 SPORT 2000 TREGUEUX 03:25:00 8,5 3
38 1409 LOUCHE Baptiste MSE 16   03:25:18 8,5 35
39 1346 BEL Christophe MV1 14   03:25:39 8,5 36
40 1577 MONNEREAU Mathieu MSE 17   03:28:19 8,4 37
41 1557 BIO FARINA Yannick MSE 18   03:28:25 8,3 38
42 1413 ANTONI Nadège FV1 3   03:28:26 8,3 4
43 1148 PRIBILSKI Christophe MV1 15 SNSM STATION DE MARTIGUES 03:28:40 8,3 39
44 1350 MEJEAN Thibaud MSE 19 OPLM 03:28:52 8,3 40
45 1431 DELACHAT Fabien MSE 20   03:29:13 8,3 41
46 1173 ORDONNEAU Florian MSE 21 COMBES ET CRETES 03:29:52 8,3 42
47 1448 ZAJAC Guillaume MSE 22   03:30:02 8,3 43
48 1490 CHOQUET Rémi MV1 16 MARC 03:30:33 8,3 44
49 1425 CHALIEZ Michaël MSE 23 LA FOULEES SEVERAGAISES 03:30:55 8,2 45
50 1509 CASTELBOU Franck MV1 17   03:31:52 8,2 46

Aucun commentaires pour le moment, donnez votre avis, vos impressions avant, pendant! et après la course

Déjà membre? Identifiez-vous pour commenter l'épreuve ou créer un compte